Time;durP1;ratioP1;P1;durP2;ratioP2;P2;SDS_P1;SDS_P2;PMS_P1;PMS_P2;Temp;Humidity;BMP_temperature;BMP_pressure;BME280_temperature;BME280_humidity;BME280_pressure;Samples;Min_cycle;Max_cycle;Signal;HPM_P1;HPM_P2
2023/12/08 00:01:46;;;;;;;100.78;24.77;;;6.40;98.40;;;;;;5000771;28;20037;-50
2023/12/08 00:04:12;;;;;;;74.75;21.52;;;6.40;98.50;;;;;;5000835;28;20035;-50
2023/12/08 00:06:37;;;;;;;95.60;23.45;;;6.40;98.50;;;;;;5000703;28;20461;-50
2023/12/08 00:09:03;;;;;;;89.38;23.58;;;6.40;98.50;;;;;;5001020;28;20061;-50
2023/12/08 00:11:29;;;;;;;86.95;23.55;;;6.40;98.50;;;;;;4985695;28;20425;-50
2023/12/08 00:13:54;;;;;;;93.25;25.73;;;6.40;98.40;;;;;;5000718;28;20026;-50
2023/12/08 00:16:22;;;;;;;89.78;23.88;;;6.40;98.50;;;;;;5001004;28;20027;-50
2023/12/08 00:18:47;;;;;;;82.70;22.63;;;6.40;98.50;;;;;;4984444;28;20386;-50
2023/12/08 00:21:13;;;;;;;96.30;24.83;;;6.40;98.50;;;;;;4985500;28;20030;-50
2023/12/08 00:23:38;;;;;;;99.70;24.23;;;6.30;98.50;;;;;;4985699;28;20106;-50
2023/12/08 00:26:04;;;;;;;86.18;22.77;;;6.30;98.50;;;;;;4984096;28;20034;-50
2023/12/08 00:28:30;;;;;;;88.78;23.88;;;6.30;98.50;;;;;;5000294;28;20042;-50
2023/12/08 00:30:55;;;;;;;89.88;21.98;;;6.30;98.50;;;;;;5000258;28;20050;-50
2023/12/08 00:33:21;;;;;;;59.13;20.92;;;6.30;98.50;;;;;;4985450;28;20027;-50
2023/12/08 00:35:48;;;;;;;68.88;20.80;;;6.30;98.50;;;;;;4985490;28;20057;-50
2023/12/08 00:38:13;;;;;;;80.28;22.45;;;6.30;98.50;;;;;;4985263;28;20027;-50
2023/12/08 00:40:39;;;;;;;61.50;20.98;;;6.30;98.50;;;;;;4983885;28;20608;-50
2023/12/08 00:43:04;;;;;;;62.17;20.60;;;6.30;98.40;;;;;;4999969;28;20042;-50
2023/12/08 00:45:30;;;;;;;70.60;20.25;;;6.30;98.40;;;;;;4983720;28;20031;-50
2023/12/08 00:47:56;;;;;;;65.00;20.85;;;6.30;98.40;;;;;;5000039;28;20483;-50
2023/12/08 00:50:21;;;;;;;60.45;20.40;;;6.30;98.50;;;;;;5000004;28;20061;-50
2023/12/08 00:52:47;;;;;;;80.22;22.55;;;6.30;98.50;;;;;;4999382;28;20034;-50
2023/12/08 00:55:12;;;;;;;78.03;21.33;;;6.30;98.50;;;;;;5000040;28;20023;-50
2023/12/08 00:57:38;;;;;;;65.72;21.48;;;6.30;98.50;;;;;;5000021;28;20031;-50
2023/12/08 01:00:04;;;;;;;74.60;20.92;;;6.20;98.50;;;;;;4999789;28;20121;-50
2023/12/08 01:02:29;;;;;;;63.15;20.63;;;6.20;98.50;;;;;;4999841;28;20027;-50
2023/12/08 01:04:55;;;;;;;62.58;19.67;;;6.20;98.50;;;;;;4984719;28;20030;-50
2023/12/08 01:07:21;;;;;;;47.90;19.25;;;6.20;98.60;;;;;;4984867;28;20035;-50
2023/12/08 01:09:46;;;;;;;59.97;20.35;;;6.20;98.60;;;;;;4984634;28;20054;-50
2023/12/08 01:12:12;;;;;;;62.78;19.77;;;6.20;98.60;;;;;;4984849;28;20306;-50
2023/12/08 01:14:37;;;;;;;60.15;19.73;;;6.20;98.60;;;;;;4999662;28;20083;-50
2023/12/08 01:17:03;;;;;;;46.60;18.80;;;6.20;98.60;;;;;;4984797;28;20065;-50
2023/12/08 01:19:29;;;;;;;68.78;20.50;;;6.10;98.60;;;;;;4999685;28;20046;-50
2023/12/08 01:21:54;;;;;;;53.78;19.40;;;6.20;98.60;;;;;;4984623;28;20506;-50
2023/12/08 01:24:20;;;;;;;59.55;20.08;;;6.10;98.60;;;;;;4984599;28;20042;-50
2023/12/08 01:26:46;;;;;;;68.97;19.95;;;6.10;98.60;;;;;;4983022;28;20041;-50
2023/12/08 01:29:12;;;;;;;66.07;20.65;;;6.20;98.60;;;;;;4999602;28;20035;-50
2023/12/08 01:31:37;;;;;;;61.00;20.70;;;6.20;98.60;;;;;;4999324;28;20056;-50
2023/12/08 01:34:03;;;;;;;61.05;19.15;;;6.10;98.60;;;;;;4999518;28;20038;-50
2023/12/08 01:36:28;;;;;;;57.75;19.63;;;6.20;98.60;;;;;;4982984;28;20027;-50
2023/12/08 01:38:54;;;;;;;48.50;18.33;;;6.10;98.50;;;;;;4983200;28;20051;-50
2023/12/08 01:41:20;;;;;;;60.70;19.05;;;6.20;98.50;;;;;;4999404;28;20033;-50
2023/12/08 01:43:46;;;;;;;55.22;18.95;;;6.10;98.50;;;;;;4984422;28;20041;-50
2023/12/08 01:46:15;;;;;;;46.28;19.10;;;6.10;98.50;;;;;;4999266;28;20062;-50
2023/12/08 01:48:44;;;;;;;37.85;19.33;;;6.10;98.60;;;;;;4982939;28;20030;-50
2023/12/08 01:51:10;;;;;;;52.25;20.45;;;6.10;98.60;;;;;;4999652;28;20023;-50
2023/12/08 01:53:35;;;;;;;46.78;18.70;;;6.10;98.90;;;;;;4999283;28;20027;-50
2023/12/08 01:56:01;;;;;;;45.30;19.13;;;6.10;98.60;;;;;;4983023;28;20027;-50
2023/12/08 01:58:27;;;;;;;47.40;18.75;;;6.10;98.60;;;;;;4999305;28;20035;-50
2023/12/08 02:00:53;;;;;;;41.83;18.13;;;6.10;98.70;;;;;;4999058;28;20039;-50
2023/12/08 02:03:18;;;;;;;58.78;19.58;;;6.10;98.60;;;;;;4984231;28;20039;-50
2023/12/08 02:05:51;;;;;;;38.30;18.23;;;6.10;98.60;;;;;;5002216;28;20035;-50
2023/12/08 02:08:18;;;;;;;49.55;19.17;;;6.00;98.60;;;;;;5002144;28;20031;-50
2023/12/08 02:10:43;;;;;;;48.00;18.48;;;6.00;98.60;;;;;;4987502;28;20051;-50
2023/12/08 02:13:11;;;;;;;41.85;19.08;;;6.00;98.70;;;;;;5002633;28;20030;-50
2023/12/08 02:15:36;;;;;;;45.38;18.17;;;6.00;98.70;;;;;;5002189;28;20027;-50
2023/12/08 02:18:02;;;;;;;44.53;18.75;;;6.00;98.70;;;;;;5002321;28;20062;-50
2023/12/08 02:20:28;;;;;;;47.60;18.35;;;6.00;98.70;;;;;;4986036;28;20031;-50
2023/12/08 02:22:54;;;;;;;41.78;18.63;;;5.90;98.70;;;;;;5002306;28;20076;-51
2023/12/08 02:25:19;;;;;;;39.83;17.58;;;6.00;98.70;;;;;;4987178;28;20023;-50
2023/12/08 02:27:45;;;;;;;43.28;17.70;;;5.90;98.70;;;;;;4986953;28;20039;-50
2023/12/08 02:30:11;;;;;;;43.85;17.45;;;5.90;98.70;;;;;;4986056;28;20027;-50
2023/12/08 02:32:52;;;;;;;45.22;18.75;;;5.90;98.70;;;;;;5002040;28;20030;-50
2023/12/08 02:35:18;;;;;;;45.38;17.73;;;5.90;98.70;;;;;;5001691;28;20027;-51
2023/12/08 02:37:46;;;;;;;46.63;18.25;;;5.90;98.70;;;;;;5002129;28;20100;-51
2023/12/08 02:40:11;;;;;;;37.63;17.60;;;5.90;98.70;;;;;;5002363;28;20042;-51
2023/12/08 02:42:37;;;;;;;37.28;18.27;;;6.00;98.70;;;;;;5002032;28;20034;-50
2023/12/08 02:45:03;;;;;;;35.33;16.98;;;5.90;98.70;;;;;;5002001;28;20035;-50
2023/12/08 02:47:29;;;;;;;42.33;17.70;;;5.90;98.70;;;;;;5001857;28;20046;-50
2023/12/08 02:49:54;;;;;;;39.13;17.63;;;5.90;98.60;;;;;;5001857;28;20031;-50
2023/12/08 02:52:20;;;;;;;35.50;16.90;;;5.90;98.60;;;;;;5001993;28;20049;-50
2023/12/08 02:54:46;;;;;;;33.53;18.45;;;5.90;98.60;;;;;;5001893;28;20027;-50
2023/12/08 02:57:11;;;;;;;44.75;17.73;;;5.90;98.70;;;;;;5001808;28;20031;-50
2023/12/08 02:59:37;;;;;;;31.35;17.33;;;5.90;98.70;;;;;;5001795;28;20039;-50
2023/12/08 03:02:03;;;;;;;43.72;17.65;;;5.90;98.70;;;;;;4986595;28;20031;-50
2023/12/08 03:04:28;;;;;;;38.88;17.13;;;5.90;98.80;;;;;;5001806;28;20075;-50
2023/12/08 03:06:54;;;;;;;32.22;16.60;;;5.90;98.80;;;;;;5001442;28;20031;-50
2023/12/08 03:09:19;;;;;;;34.05;17.27;;;5.90;98.70;;;;;;4986803;28;20023;-50
2023/12/08 03:11:45;;;;;;;31.90;17.27;;;5.90;98.80;;;;;;4986690;28;20047;-50
2023/12/08 03:14:10;;;;;;;36.63;16.48;;;5.80;98.80;;;;;;5001847;28;20049;-50
2023/12/08 03:16:36;;;;;;;31.08;17.42;;;5.90;98.80;;;;;;4985989;28;20034;-50
2023/12/08 03:19:01;;;;;;;40.00;17.52;;;5.80;98.80;;;;;;4986494;28;20023;-51
2023/12/08 03:21:27;;;;;;;38.40;17.27;;;5.80;99.10;;;;;;5001528;28;20022;-51
2023/12/08 03:23:53;;;;;;;33.35;17.55;;;5.90;98.80;;;;;;4985476;28;20042;-50
2023/12/08 03:26:18;;;;;;;32.83;17.08;;;5.80;98.70;;;;;;5001324;28;20071;-50
2023/12/08 03:28:44;;;;;;;27.15;16.92;;;5.90;98.70;;;;;;4986415;28;20057;-50
2023/12/08 03:31:28;;;;;;;37.22;17.08;;;5.80;98.70;;;;;;5001531;28;20030;-50
2023/12/08 03:33:53;;;;;;;29.48;15.40;;;5.90;98.70;;;;;;5001436;28;20023;-50
2023/12/08 03:36:19;;;;;;;33.38;18.02;;;5.80;98.70;;;;;;5001003;28;20391;-50
2023/12/08 03:38:45;;;;;;;41.20;18.73;;;5.90;98.80;;;;;;5001235;28;20030;-50
2023/12/08 03:41:11;;;;;;;38.78;17.40;;;5.80;98.80;;;;;;4984878;28;20045;-50
2023/12/08 03:43:37;;;;;;;34.63;17.63;;;5.80;98.80;;;;;;5001291;28;20035;-51
2023/12/08 03:46:04;;;;;;;30.52;18.15;;;5.90;98.80;;;;;;5001067;28;20033;-50
2023/12/08 03:48:30;;;;;;;32.90;17.92;;;5.80;98.80;;;;;;5001088;28;20034;-50
2023/12/08 03:50:55;;;;;;;30.42;17.83;;;5.80;98.80;;;;;;4986136;28;20114;-50
2023/12/08 03:53:21;;;;;;;38.00;20.67;;;5.80;98.80;;;;;;4985853;28;20087;-50
2023/12/08 03:55:46;;;;;;;30.38;17.75;;;5.80;98.80;;;;;;5001172;28;20023;-50
2023/12/08 03:58:12;;;;;;;33.17;17.88;;;5.80;98.80;;;;;;4986009;28;20042;-50
2023/12/08 04:00:37;;;;;;;32.30;18.77;;;5.90;98.90;;;;;;5000544;28;20502;-50
2023/12/08 04:03:06;;;;;;;32.75;18.98;;;5.80;98.80;;;;;;4984254;28;20041;-50
2023/12/08 04:05:31;;;;;;;32.97;18.75;;;5.80;98.80;;;;;;4984638;28;20031;-50
2023/12/08 04:07:57;;;;;;;39.45;20.42;;;5.80;98.80;;;;;;5000760;28;20548;-50
2023/12/08 04:10:22;;;;;;;39.08;19.58;;;5.80;98.80;;;;;;5000926;28;20027;-50
2023/12/08 04:12:48;;;;;;;34.20;20.23;;;5.90;98.80;;;;;;4985743;28;20027;-50
2023/12/08 04:15:14;;;;;;;29.45;19.63;;;5.80;98.80;;;;;;5000529;28;20027;-50
2023/12/08 04:17:39;;;;;;;29.45;18.83;;;5.80;98.80;;;;;;4985800;28;20110;-50
2023/12/08 04:20:05;;;;;;;34.40;18.83;;;5.90;98.90;;;;;;4985613;28;20039;-50
2023/12/08 04:22:31;;;;;;;25.95;17.38;;;5.80;98.80;;;;;;5000553;28;20061;-50
2023/12/08 04:24:57;;;;;;;30.45;16.83;;;5.90;98.80;;;;;;4984119;28;20062;-50
2023/12/08 04:27:23;;;;;;;32.15;16.70;;;5.80;98.70;;;;;;4999177;28;20035;-50
2023/12/08 04:29:48;;;;;;;30.45;17.45;;;5.80;98.70;;;;;;5000471;28;20033;-50
2023/12/08 04:32:14;;;;;;;26.80;15.40;;;5.80;98.60;;;;;;5000530;28;20034;-50
2023/12/08 04:34:39;;;;;;;32.08;17.55;;;5.80;98.60;;;;;;5000317;28;20023;-50
2023/12/08 04:37:05;;;;;;;24.92;16.70;;;5.80;98.50;;;;;;5000299;28;20038;-50
2023/12/08 04:39:30;;;;;;;29.48;16.95;;;5.80;98.50;;;;;;4985271;28;20038;-50
2023/12/08 04:41:56;;;;;;;27.77;15.07;;;5.90;98.50;;;;;;4983951;28;20031;-50
2023/12/08 04:44:22;;;;;;;28.05;14.38;;;5.90;98.80;;;;;;4985294;28;20027;-50
2023/12/08 04:46:47;;;;;;;28.23;15.63;;;5.90;99.20;;;;;;4983964;28;20463;-50
2023/12/08 04:49:13;;;;;;;25.65;14.65;;;5.90;99.50;;;;;;5000118;28;20026;-50
2023/12/08 04:51:42;;;;;;;25.25;13.75;;;5.90;99.70;;;;;;4999931;28;20085;-50
2023/12/08 04:54:07;;;;;;;22.77;14.48;;;6.00;99.80;;;;;;4983732;28;20026;-50
2023/12/08 04:56:33;;;;;;;24.70;16.73;;;6.00;99.90;;;;;;4985039;28;20050;-50
2023/12/08 04:58:58;;;;;;;24.15;14.93;;;6.00;99.80;;;;;;4999930;28;20038;-50
2023/12/08 05:01:24;;;;;;;22.98;13.93;;;6.00;99.70;;;;;;4999903;28;20078;-50
2023/12/08 05:03:50;;;;;;;26.55;14.65;;;6.00;99.80;;;;;;4984970;28;20058;-50
2023/12/08 05:06:16;;;;;;;24.50;14.75;;;6.00;99.80;;;;;;4983356;28;20054;-50
2023/12/08 05:08:41;;;;;;;26.95;14.48;;;6.00;99.70;;;;;;4999478;28;20141;-50
2023/12/08 05:11:07;;;;;;;22.35;14.82;;;6.00;99.60;;;;;;4999906;28;20053;-50
2023/12/08 05:13:33;;;;;;;25.80;14.25;;;6.00;99.60;;;;;;4984870;28;20048;-50
2023/12/08 05:15:59;;;;;;;23.75;13.63;;;6.00;99.50;;;;;;4984669;28;20029;-50
2023/12/08 05:18:25;;;;;;;21.10;13.65;;;6.00;99.50;;;;;;4999656;28;20087;-50
2023/12/08 05:20:51;;;;;;;22.80;14.50;;;6.00;99.40;;;;;;4999588;28;20090;-50
2023/12/08 05:23:18;;;;;;;23.02;14.30;;;6.00;99.40;;;;;;4984799;28;20027;-50
2023/12/08 05:25:44;;;;;;;29.08;14.90;;;6.10;99.40;;;;;;4983037;28;20038;-51
2023/12/08 05:28:09;;;;;;;30.45;15.57;;;6.10;99.40;;;;;;4984690;28;20027;-50
2023/12/08 05:30:35;;;;;;;19.02;13.20;;;6.00;99.30;;;;;;4999497;28;20023;-50
2023/12/08 05:33:01;;;;;;;25.42;13.52;;;6.00;99.30;;;;;;4999543;28;20043;-50
2023/12/08 05:35:27;;;;;;;20.73;14.57;;;6.00;99.20;;;;;;4999694;28;20487;-50
2023/12/08 05:37:52;;;;;;;20.83;13.52;;;6.00;99.30;;;;;;4984661;28;20105;-50
2023/12/08 05:40:18;;;;;;;27.10;12.45;;;6.00;99.60;;;;;;4984393;28;20038;-50
2023/12/08 05:42:44;;;;;;;20.48;13.23;;;6.00;99.40;;;;;;4999984;28;20041;-50
2023/12/08 05:45:10;;;;;;;19.55;13.40;;;6.00;99.40;;;;;;5000330;28;20027;-48
2023/12/08 05:47:35;;;;;;;20.85;13.15;;;6.10;99.40;;;;;;4984580;28;20446;-50
2023/12/08 05:50:01;;;;;;;19.40;13.57;;;6.10;99.40;;;;;;4983235;28;20038;-50
2023/12/08 05:52:26;;;;;;;24.33;13.48;;;6.00;99.50;;;;;;4999395;28;20026;-50
2023/12/08 05:54:52;;;;;;;23.33;13.35;;;6.00;99.50;;;;;;4984389;28;20057;-50
2023/12/08 05:57:17;;;;;;;23.30;13.15;;;6.00;99.50;;;;;;4982870;28;20102;-50
2023/12/08 05:59:43;;;;;;;18.48;12.13;;;6.00;99.50;;;;;;4984259;28;20425;-50
2023/12/08 06:02:09;;;;;;;24.85;13.50;;;6.00;99.50;;;;;;4983198;28;20038;-50
2023/12/08 06:04:34;;;;;;;18.95;11.05;;;6.00;99.50;;;;;;4983000;28;20038;-50
2023/12/08 06:07:00;;;;;;;22.77;12.10;;;6.00;99.60;;;;;;4983971;28;20035;-50
2023/12/08 06:09:25;;;;;;;19.65;12.23;;;6.00;99.60;;;;;;4992553;28;20031;-50
2023/12/08 06:11:51;;;;;;;21.13;11.98;;;6.00;99.60;;;;;;5003234;28;20023;-50
2023/12/08 06:14:17;;;;;;;19.60;12.32;;;6.10;99.60;;;;;;5001591;28;20027;-50
2023/12/08 06:16:43;;;;;;;19.63;12.00;;;6.00;99.60;;;;;;4985966;28;20030;-50
2023/12/08 06:19:09;;;;;;;21.85;12.43;;;6.10;99.70;;;;;;5002320;28;20506;-50
2023/12/08 06:21:34;;;;;;;16.30;12.32;;;6.10;99.70;;;;;;5002263;28;20023;-50
2023/12/08 06:24:00;;;;;;;21.10;11.88;;;6.10;99.70;;;;;;5001827;28;20056;-50
2023/12/08 06:26:26;;;;;;;19.20;11.30;;;6.10;99.60;;;;;;5000900;28;20393;-50
2023/12/08 06:28:52;;;;;;;18.38;11.55;;;6.10;99.70;;;;;;4985291;28;20086;-50
2023/12/08 06:31:18;;;;;;;16.02;11.90;;;6.10;99.70;;;;;;5002000;28;20027;-50
2023/12/08 06:33:43;;;;;;;16.48;11.82;;;6.10;99.70;;;;;;5001765;28;20037;-50
2023/12/08 06:36:10;;;;;;;19.60;11.52;;;6.10;99.70;;;;;;4985631;28;20039;-50
2023/12/08 06:38:37;;;;;;;17.27;11.93;;;6.10;99.70;;;;;;5001376;28;20040;-51
2023/12/08 06:41:03;;;;;;;20.77;11.50;;;6.10;99.60;;;;;;4985451;28;20562;-50
2023/12/08 06:43:29;;;;;;;21.80;11.30;;;6.10;99.60;;;;;;5001794;28;20026;-50
2023/12/08 06:45:54;;;;;;;19.70;11.30;;;6.10;99.60;;;;;;5003171;28;20082;-50
2023/12/08 06:48:21;;;;;;;20.38;11.15;;;6.10;99.60;;;;;;5002958;28;20038;-50
2023/12/08 06:50:47;;;;;;;15.20;11.07;;;6.10;99.60;;;;;;5002533;28;20033;-50
2023/12/08 06:53:13;;;;;;;20.55;11.10;;;6.10;99.60;;;;;;5005493;28;20023;-50
2023/12/08 06:55:38;;;;;;;15.85;10.35;;;6.10;99.60;;;;;;5005010;28;20086;-50
2023/12/08 06:58:04;;;;;;;16.95;11.10;;;6.10;99.60;;;;;;5004275;28;20042;-50
2023/12/08 07:00:29;;;;;;;15.48;11.10;;;6.10;99.60;;;;;;5002572;28;20026;-50
2023/12/08 07:02:55;;;;;;;19.73;11.45;;;6.10;99.70;;;;;;5005596;28;20034;-50
2023/12/08 07:05:21;;;;;;;16.88;10.63;;;6.10;99.70;;;;;;5006294;28;20046;-50
2023/12/08 07:07:47;;;;;;;20.48;11.05;;;6.10;99.70;;;;;;5004437;28;20038;-50
2023/12/08 07:10:14;;;;;;;20.75;11.75;;;6.10;99.70;;;;;;5004985;28;20105;-50
2023/12/08 07:12:40;;;;;;;14.90;10.70;;;6.20;99.80;;;;;;5004220;28;20058;-50
2023/12/08 07:15:06;;;;;;;16.02;10.10;;;6.10;99.90;;;;;;5001102;28;20038;-50
2023/12/08 07:17:31;;;;;;;18.33;10.18;;;6.10;99.90;;;;;;4966669;28;20599;-50
2023/12/08 07:19:57;;;;;;;12.43;9.27;;;6.10;99.90;;;;;;4998329;28;20062;-50
2023/12/08 07:22:23;;;;;;;17.42;10.93;;;6.10;99.90;;;;;;5001768;28;20041;-50
2023/12/08 07:24:48;;;;;;;17.02;10.40;;;6.20;99.90;;;;;;5002932;28;20030;-50
2023/12/08 07:27:14;;;;;;;19.73;10.30;;;6.10;99.90;;;;;;5002117;28;20053;-50
2023/12/08 07:29:39;;;;;;;20.73;9.63;;;6.10;99.90;;;;;;5026679;28;20051;-50
2023/12/08 07:32:06;;;;;;;14.68;10.13;;;6.10;99.90;;;;;;5010258;28;20030;-50
2023/12/08 07:34:31;;;;;;;15.77;10.02;;;6.20;99.90;;;;;;5048290;28;20038;-50
2023/12/08 07:36:57;;;;;;;18.05;10.95;;;6.10;99.90;;;;;;5003907;28;20105;-50
2023/12/08 07:39:23;;;;;;;19.10;11.45;;;6.20;99.90;;;;;;5005417;28;20043;-50
2023/12/08 07:41:48;;;;;;;15.63;9.77;;;6.20;99.90;;;;;;4994509;28;20031;-50
2023/12/08 07:44:14;;;;;;;38.80;10.38;;;6.20;99.90;;;;;;5001790;28;20033;-50
2023/12/08 07:46:40;;;;;;;19.45;10.10;;;6.20;99.90;;;;;;5005003;28;20050;-50
2023/12/08 07:49:06;;;;;;;26.05;9.98;;;6.20;99.90;;;;;;4992535;28;20096;-49
2023/12/08 07:51:34;;;;;;;35.10;11.70;;;6.20;99.90;;;;;;5004369;28;20258;-50
2023/12/08 07:54:00;;;;;;;49.05;11.45;;;6.20;99.90;;;;;;5003647;28;20022;-50
2023/12/08 07:56:26;;;;;;;46.92;11.27;;;6.30;99.90;;;;;;5002545;28;20027;-49
2023/12/08 07:58:51;;;;;;;33.35;10.50;;;6.30;99.90;;;;;;5001544;28;20064;-49
2023/12/08 08:01:17;;;;;;;31.35;10.55;;;6.30;99.90;;;;;;4998887;28;20042;-50
2023/12/08 08:03:42;;;;;;;25.80;10.50;;;6.30;99.90;;;;;;4997515;28;20079;-50
2023/12/08 08:06:09;;;;;;;33.25;10.35;;;6.30;99.90;;;;;;5003187;28;20030;-50
2023/12/08 08:08:35;;;;;;;50.33;12.40;;;6.40;99.90;;;;;;5005543;28;20034;-50
2023/12/08 08:11:00;;;;;;;49.38;12.38;;;6.40;99.90;;;;;;5022876;28;20033;-50
2023/12/08 08:13:26;;;;;;;47.90;12.07;;;6.40;99.90;;;;;;5007461;28;20026;-50
2023/12/08 08:15:52;;;;;;;52.90;11.82;;;6.40;99.90;;;;;;5067559;28;20080;-51
2023/12/08 08:18:17;;;;;;;42.80;12.65;;;6.40;99.90;;;;;;5004332;28;20120;-50
2023/12/08 08:20:43;;;;;;;44.22;12.35;;;6.50;99.90;;;;;;5012253;28;20030;-50
2023/12/08 08:23:08;;;;;;;46.92;12.57;;;6.50;99.90;;;;;;5008787;28;20114;-50
2023/12/08 08:25:34;;;;;;;47.85;12.10;;;6.50;99.90;;;;;;5001281;28;20062;-50
2023/12/08 08:28:00;;;;;;;60.58;13.18;;;6.50;99.90;;;;;;4997627;28;20034;-50
2023/12/08 08:30:26;;;;;;;46.17;12.63;;;6.50;99.90;;;;;;5002323;28;20030;-50
2023/12/08 08:32:52;;;;;;;59.50;13.40;;;6.50;99.90;;;;;;4968763;28;20035;-50
2023/12/08 08:35:17;;;;;;;76.47;15.77;;;6.50;99.90;;;;;;5001390;28;20018;-50
2023/12/08 08:37:43;;;;;;;58.17;13.07;;;6.50;99.90;;;;;;4999080;28;20098;-50
2023/12/08 08:40:09;;;;;;;47.30;13.25;;;6.50;99.90;;;;;;5001319;28;20030;-50
2023/12/08 08:42:36;;;;;;;48.58;13.02;;;6.60;99.90;;;;;;5002573;28;20030;-50
2023/12/08 08:45:03;;;;;;;68.63;14.50;;;6.60;99.90;;;;;;5001077;28;20046;-50
2023/12/08 08:47:29;;;;;;;61.17;15.15;;;6.60;99.90;;;;;;5008378;28;20030;-50
2023/12/08 08:49:54;;;;;;;74.05;14.73;;;6.60;99.90;;;;;;5000281;28;20181;-50
2023/12/08 08:52:20;;;;;;;57.08;14.85;;;6.60;99.90;;;;;;5002010;28;20099;-50
2023/12/08 08:54:46;;;;;;;64.00;14.43;;;6.60;99.90;;;;;;5004309;28;20065;-50
2023/12/08 08:57:12;;;;;;;66.38;15.60;;;6.60;99.90;;;;;;4993961;28;20072;-50
2023/12/08 08:59:37;;;;;;;74.40;15.77;;;6.60;99.90;;;;;;4997460;28;20039;-50
2023/12/08 09:02:03;;;;;;;67.45;16.50;;;6.70;99.90;;;;;;4998767;28;20041;-50
2023/12/08 09:04:29;;;;;;;78.30;16.20;;;6.70;99.90;;;;;;5007148;28;20037;-48
2023/12/08 09:06:56;;;;;;;85.32;17.38;;;6.70;99.90;;;;;;5000097;28;20022;-48
2023/12/08 09:09:22;;;;;;;94.50;18.83;;;6.70;99.90;;;;;;4994690;28;20039;-48
2023/12/08 09:11:47;;;;;;;92.75;18.75;;;6.70;99.90;;;;;;4991883;28;20033;-48
2023/12/08 09:14:14;;;;;;;80.22;17.00;;;6.70;99.90;;;;;;4990974;28;20087;-48
2023/12/08 09:16:39;;;;;;;82.63;16.38;;;6.70;99.90;;;;;;4982221;28;20110;-48
2023/12/08 09:19:05;;;;;;;84.68;17.17;;;6.70;99.90;;;;;;4997224;28;20022;-48
2023/12/08 09:21:31;;;;;;;99.40;16.95;;;6.70;99.90;;;;;;4989420;28;20026;-48
2023/12/08 09:23:57;;;;;;;121.57;17.83;;;6.70;99.90;;;;;;4999953;28;20056;-48
2023/12/08 09:26:22;;;;;;;93.28;17.20;;;6.70;99.90;;;;;;4996277;28;20052;-48
2023/12/08 09:28:48;;;;;;;92.80;16.38;;;6.80;99.90;;;;;;4984632;28;20086;-48
2023/12/08 09:31:14;;;;;;;74.90;15.10;;;6.80;99.90;;;;;;4997550;28;20031;-48
2023/12/08 09:33:41;;;;;;;99.88;15.77;;;6.80;99.90;;;;;;4997784;28;20039;-48
2023/12/08 09:36:08;;;;;;;128.23;18.38;;;6.80;99.90;;;;;;4992858;28;20037;-48
2023/12/08 09:38:33;;;;;;;95.05;19.02;;;6.80;99.90;;;;;;4999079;28;20034;-48
2023/12/08 09:41:05;;;;;;;102.07;18.67;;;6.90;99.90;;;;;;4994403;28;20027;-48
2023/12/08 09:43:31;;;;;;;129.38;18.00;;;6.90;99.90;;;;;;4986632;28;20035;-48
2023/12/08 09:45:57;;;;;;;136.35;20.55;;;6.90;99.90;;;;;;4991640;28;20026;-50
2023/12/08 09:48:23;;;;;;;130.25;19.20;;;6.90;99.90;;;;;;4994569;28;20030;-50
2023/12/08 09:50:50;;;;;;;124.28;18.77;;;6.90;99.90;;;;;;5004352;28;20022;-51
2023/12/08 09:53:16;;;;;;;154.93;21.25;;;7.00;99.90;;;;;;5002820;28;20113;-50
2023/12/08 09:55:41;;;;;;;157.90;22.10;;;7.00;99.90;;;;;;4991414;28;20113;-51
2023/12/08 09:58:07;;;;;;;125.28;21.38;;;7.00;99.90;;;;;;4991660;28;20039;-51
2023/12/08 10:00:33;;;;;;;175.02;21.77;;;7.00;99.90;;;;;;4999947;28;20028;-51
2023/12/08 10:03:00;;;;;;;109.75;19.25;;;7.00;99.90;;;;;;4998647;28;20053;-51
2023/12/08 10:05:27;;;;;;;117.03;18.70;;;7.00;99.90;;;;;;4998604;28;20049;-51
2023/12/08 10:07:53;;;;;;;155.75;20.92;;;7.00;99.90;;;;;;4996281;28;20047;-51
2023/12/08 10:10:19;;;;;;;116.13;18.33;;;7.00;99.90;;;;;;4973868;28;20025;-50
2023/12/08 10:12:45;;;;;;;138.55;20.33;;;7.10;99.90;;;;;;4991703;28;20023;-59
2023/12/08 10:15:11;;;;;;;155.85;22.95;;;7.10;99.90;;;;;;4982761;28;20379;-49
2023/12/08 10:17:46;;;;;;;111.45;20.40;;;7.10;99.90;;;;;;4994612;28;20048;-51
2023/12/08 10:20:12;;;;;;;164.20;22.95;;;7.10;99.90;;;;;;4988903;28;20053;-51
2023/12/08 10:22:48;;;;;;;158.35;22.05;;;7.10;99.90;;;;;;5011799;28;20046;-50
2023/12/08 10:25:22;;;;;;;134.23;21.20;;;7.10;99.90;;;;;;4999501;28;20035;-50
2023/12/08 10:27:49;;;;;;;150.13;22.77;;;7.10;99.90;;;;;;4999492;28;20026;-50
2023/12/08 10:30:15;;;;;;;156.68;21.83;;;7.20;99.90;;;;;;5013387;28;20026;-51
2023/12/08 10:32:42;;;;;;;155.45;21.58;;;7.20;99.90;;;;;;5016405;28;20025;-51
2023/12/08 10:35:10;;;;;;;175.52;21.63;;;7.20;99.90;;;;;;5001331;28;20050;-50
2023/12/08 10:37:35;;;;;;;193.93;23.48;;;7.20;99.90;;;;;;5002803;28;20030;-51
2023/12/08 10:40:01;;;;;;;242.05;27.55;;;7.30;99.90;;;;;;4977653;28;20083;-50
2023/12/08 10:42:27;;;;;;;176.30;22.33;;;7.30;99.90;;;;;;5004669;28;20497;-51
2023/12/08 10:44:52;;;;;;;155.20;23.67;;;7.30;99.90;;;;;;5003870;28;20235;-50
2023/12/08 10:47:20;;;;;;;115.57;19.80;;;7.30;99.90;;;;;;4981338;28;20364;-50
2023/12/08 10:49:45;;;;;;;128.00;19.50;;;7.40;99.90;;;;;;4987760;28;20058;-50
2023/12/08 10:52:12;;;;;;;204.00;26.48;;;7.30;99.90;;;;;;5003748;28;20029;-51
2023/12/08 10:54:37;;;;;;;215.48;25.27;;;7.40;99.90;;;;;;4987997;28;20113;-51
2023/12/08 10:57:03;;;;;;;217.52;28.05;;;7.40;99.90;;;;;;4995583;28;20038;-50
2023/12/08 10:59:29;;;;;;;174.32;24.83;;;7.40;99.90;;;;;;5005478;28;20040;-50
2023/12/08 11:01:58;;;;;;;151.07;24.08;;;7.40;99.90;;;;;;4998833;28;20027;-50
2023/12/08 11:04:25;;;;;;;334.42;36.05;;;7.40;99.90;;;;;;5003649;28;20097;-50
2023/12/08 11:07:00;;;;;;;192.00;24.70;;;7.40;99.90;;;;;;5001319;28;20045;-50
2023/12/08 11:09:27;;;;;;;197.57;23.70;;;7.40;99.90;;;;;;5003444;28;20038;-50
2023/12/08 11:12:03;;;;;;;141.85;19.40;;;7.40;99.90;;;;;;5005548;28;20034;-50
2023/12/08 11:14:40;;;;;;;;;;;7.40;99.90;;;;;;4997163;28;20027;-50
2023/12/08 11:17:31;;;;;;;141.82;19.65;;;7.50;99.90;;;;;;4998043;28;19910;-50
2023/12/08 11:19:57;;;;;;;127.45;18.73;;;7.50;99.90;;;;;;4987381;28;20099;-50
2023/12/08 11:22:23;;;;;;;126.43;17.30;;;7.50;99.90;;;;;;4986073;28;20037;-50
2023/12/08 11:24:48;;;;;;;123.70;16.90;;;7.50;99.90;;;;;;4999451;28;20510;-50
2023/12/08 11:27:33;;;;;;;120.35;17.08;;;7.50;99.90;;;;;;5020264;28;20482;-49
2023/12/08 11:30:27;;;;;;;128.00;17.85;;;7.50;99.90;;;;;;4982460;28;20101;-50
2023/12/08 11:33:08;;;;;;;103.20;15.52;;;7.50;99.90;;;;;;5013792;28;20386;-50
2023/12/08 11:35:34;;;;;;;125.40;18.48;;;7.60;99.90;;;;;;5003780;28;20026;-50
2023/12/08 11:38:03;;;;;;;127.75;17.63;;;7.60;99.90;;;;;;5005966;28;20072;-50
2023/12/08 11:40:28;;;;;;;144.75;20.00;;;7.60;99.90;;;;;;4998161;28;20394;-50
2023/12/08 11:42:54;;;;;;;107.47;16.23;;;7.60;99.90;;;;;;4986468;28;20118;-50
2023/12/08 11:45:20;;;;;;;116.30;17.00;;;7.60;99.90;;;;;;4993460;28;20057;-50
2023/12/08 11:47:45;;;;;;;135.98;19.83;;;7.70;99.90;;;;;;5000837;28;20061;-50
2023/12/08 11:50:11;;;;;;;114.22;16.52;;;7.60;99.90;;;;;;5001736;28;20030;-50
2023/12/08 11:52:37;;;;;;;118.78;17.20;;;7.70;99.90;;;;;;5000252;28;20046;-50
2023/12/08 11:55:12;;;;;;;119.95;19.20;;;7.70;99.90;;;;;;5000468;28;20022;-50
2023/12/08 11:57:59;;;;;;;126.95;17.50;;;7.70;99.90;;;;;;5001156;28;20034;-50
2023/12/08 12:00:26;;;;;;;119.82;17.48;;;7.70;99.90;;;;;;5001485;28;20026;-50
2023/12/08 12:02:51;;;;;;;164.63;18.42;;;7.70;99.90;;;;;;5001024;28;20068;-50
2023/12/08 12:05:17;;;;;;;140.05;17.52;;;7.70;99.90;;;;;;5026359;28;20038;-51
2023/12/08 12:07:49;;;;;;;496.23;46.35;;;7.80;99.90;;;;;;5000155;28;20049;-50
2023/12/08 12:10:16;;;;;;;193.98;19.95;;;7.80;99.90;;;;;;5008650;28;20129;-50
2023/12/08 12:12:51;;;;;;;135.48;18.08;;;7.80;99.90;;;;;;5015134;28;20090;-50
2023/12/08 12:15:21;;;;;;;169.05;21.05;;;7.80;99.90;;;;;;4980063;28;20037;-47
2023/12/08 12:17:47;;;;;;;176.52;21.08;;;7.80;99.90;;;;;;4989730;28;20030;-50
2023/12/08 12:20:12;;;;;;;142.98;17.90;;;7.80;99.90;;;;;;5006000;28;20030;-50
2023/12/08 12:22:41;;;;;;;147.40;18.00;;;7.80;99.90;;;;;;5012415;28;20082;-50
2023/12/08 12:25:10;;;;;;;99.93;15.23;;;7.80;99.90;;;;;;5008186;28;20035;-50
2023/12/08 12:27:46;;;;;;;107.80;16.52;;;7.80;99.90;;;;;;4988678;28;20027;-50
2023/12/08 12:30:11;;;;;;;;;;;7.80;99.90;;;;;;5004787;28;20505;-50
2023/12/08 12:32:37;;;;;;;;;;;7.90;99.90;;;;;;5009544;28;19917;-50